KHBG/HBG METAR and TAF weather

Enter ICAO airport designator
Station Type Date Time Source
KHBG METAR 2020/05/29 17:53 UTC NOAA

KHBG 291753Z AUTO 00000KT 10SM SCT038 28/18 A3003 RMK AO2 SLP167 T02780183 10283 20206 58009


Station Type Date Time Source
KHBG Decoded METAR 2020/05/29 17:53 UTC NOAA

HATTIESBURG CHAIN MUNICIPAL, MS, United States (KHBG) 31-16N 89-15W 44M
May 29, 2020 - 01:53 PM EDT / 2020.05.29 1753 UTC
Wind: Calm:0
Visibility: 10 mile(s):0
Sky conditions: partly cloudy
Temperature: 82.0 F (27.8 C)
Dew Point: 64.9 F (18.3 C)
Relative Humidity: 56%
Pressure (altimeter): 30.03 in. Hg (1016 hPa)
Pressure tendency: 0.03 inches (0.9 hPa) lower than three hours ago
ob: KHBG 291753Z AUTO 00000KT 10SM SCT038 28/18 A3003 RMK AO2 SLP167 T02780183 10283 20206 58009
cycle: 18

Station Type Date Time Source
KHBG TAF 2020/05/29 18:24 UTC NOAA

TAF KHBG 291721Z 2918/3018 35003KT P6SM VCTS BKN035CB
FM300000 36004KT P6SM SCT050

Example: see airport list